Time;durP1;ratioP1;P1;durP2;ratioP2;P2;SDS_P1;SDS_P2;PMS_P1;PMS_P2;Temp;Humidity;BMP_temperature;BMP_pressure;BME280_temperature;BME280_humidity;BME280_pressure;Samples;Min_cycle;Max_cycle;Signal;HPM_P1;HPM_P2
2021/03/22 00:01:17;;;;;;;20.10;5.37;;;;;;;-0.03;81.00;100081.00;124084;1115;26121;-55
2021/03/22 00:03:46;;;;;;;18.55;4.80;;;;;;;-0.04;81.87;100084.91;123993;1114;26533;-54
2021/03/22 00:06:15;;;;;;;23.07;5.10;;;;;;;-0.06;81.94;100087.30;123972;1116;23363;-55
2021/03/22 00:08:44;;;;;;;22.90;5.33;;;;;;;-0.08;80.87;100093.20;123987;1115;23367;-54
2021/03/22 00:11:14;;;;;;;17.80;4.40;;;;;;;-0.10;81.87;100097.53;124267;1115;24837;-53
2021/03/22 00:13:42;;;;;;;19.43;5.00;;;;;;;-0.11;81.42;100098.73;124190;1113;23036;-55
2021/03/22 00:16:12;;;;;;;18.50;4.47;;;;;;;-0.13;81.15;100106.61;124364;1114;23038;-54
2021/03/22 00:18:42;;;;;;;17.07;3.92;;;;;;;-0.16;81.23;100102.70;124070;1115;23237;-53
2021/03/22 00:21:14;;;;;;;19.57;4.70;;;;;;;-0.17;81.23;100114.10;124151;1115;26387;-53
2021/03/22 00:23:43;;;;;;;13.73;3.63;;;;;;;-0.20;81.20;100115.69;124042;1113;23090;-53
2021/03/22 00:26:12;;;;;;;20.87;4.30;;;;;;;-0.22;81.61;100115.32;124124;1116;23047;-54
2021/03/22 00:28:42;;;;;;;22.50;4.00;;;;;;;-0.24;81.24;100111.42;124113;1115;23040;-53
2021/03/22 00:31:13;;;;;;;18.50;4.17;;;;;;;-0.26;81.24;100119.28;123940;1114;24493;-56
2021/03/22 00:33:43;;;;;;;19.73;3.90;;;;;;;-0.29;81.45;100118.13;123781;1114;26415;-55
2021/03/22 00:36:13;;;;;;;21.63;4.43;;;;;;;-0.32;81.78;100113.48;125338;1114;23097;-55
2021/03/22 00:38:42;;;;;;;20.43;5.35;;;;;;;-0.35;81.61;100116.27;125746;1115;23215;-53
2021/03/22 00:41:12;;;;;;;22.35;5.00;;;;;;;-0.38;82.11;100119.81;123972;1114;23364;-53
2021/03/22 00:43:42;;;;;;;22.90;5.80;;;;;;;-0.40;81.57;100130.41;124003;1115;23210;-55
2021/03/22 00:46:11;;;;;;;21.05;4.60;;;;;;;-0.44;81.43;100124.19;123994;1115;23447;-54
2021/03/22 00:48:41;;;;;;;24.35;5.30;;;;;;;-0.46;81.54;100121.08;124071;1113;26443;-55
2021/03/22 00:51:09;;;;;;;;;;;;;;;-0.51;81.87;100119.55;124199;1114;24725;-53
2021/03/22 00:53:38;;;;;;;24.90;4.97;;;;;;;-0.54;81.61;100125.87;124047;1113;21539;-55
2021/03/22 00:56:08;;;;;;;24.03;4.90;;;;;;;-0.55;81.97;100120.77;124140;1115;23096;-56
2021/03/22 00:58:37;;;;;;;25.20;5.70;;;;;;;-0.58;82.48;100119.61;124073;1113;23087;-56
2021/03/22 01:01:09;;;;;;;27.87;6.30;;;;;;;-0.60;81.75;100123.97;124037;1115;23095;-54
2021/03/22 01:03:38;;;;;;;23.10;5.70;;;;;;;-0.63;82.65;100119.28;124206;1115;27870;-56
2021/03/22 01:06:09;;;;;;;23.13;6.00;;;;;;;-0.66;81.86;100120.11;124390;1113;23093;-56
2021/03/22 01:08:38;;;;;;;;;;;;;;;-0.68;82.29;100120.50;124122;1116;23089;-53
2021/03/22 01:11:10;;;;;;;27.70;6.40;;;;;;;-0.71;82.21;100120.54;124196;1113;23499;-53
2021/03/22 01:13:41;;;;;;;21.73;6.47;;;;;;;-0.74;82.72;100122.13;124218;1113;23042;-56
2021/03/22 01:16:12;;;;;;;28.33;7.20;;;;;;;-0.76;82.65;100123.70;124187;1114;23042;-54
2021/03/22 01:18:44;;;;;;;23.37;5.60;;;;;;;-0.77;82.87;100119.42;124098;1114;23089;-56
2021/03/22 01:21:16;;;;;;;21.13;5.40;;;;;;;-0.79;82.50;100116.31;124068;1115;23083;-54
2021/03/22 01:23:46;;;;;;;22.60;5.37;;;;;;;-0.81;82.61;100111.23;124187;1113;23034;-54
2021/03/22 01:26:18;;;;;;;22.83;5.67;;;;;;;-0.82;82.85;100112.41;124041;1115;24598;-54
2021/03/22 01:28:47;;;;;;;26.67;7.00;;;;;;;-0.83;82.00;100100.66;124107;1116;23241;-56
2021/03/22 01:31:17;;;;;;;24.00;6.40;;;;;;;-0.85;82.92;100102.27;124027;1113;26421;-55
2021/03/22 01:33:50;;;;;;;25.82;6.35;;;;;;;-0.88;82.01;100098.37;124197;1113;23276;-55
2021/03/22 01:36:22;;;;;;;21.20;6.53;;;;;;;-0.89;82.58;100091.32;124124;1115;23184;-55
2021/03/22 01:38:53;;;;;;;24.23;6.63;;;;;;;-0.90;82.16;100087.04;124141;1113;23034;-54
2021/03/22 01:41:55;;;;;;;24.93;7.00;;;;;;;-0.91;82.33;100090.95;124093;1114;26415;-54
2021/03/22 01:44:30;;;;;;;26.70;7.37;;;;;;;-0.91;82.67;100084.72;124049;1114;25105;-53
2021/03/22 01:47:02;;;;;;;31.23;7.47;;;;;;;-0.89;82.12;100096.05;124190;1113;23138;-55
2021/03/22 01:49:36;;;;;;;22.53;7.43;;;;;;;-0.87;81.81;100096.42;124041;1115;25569;-55
2021/03/22 01:52:07;;;;;;;28.40;8.05;;;;;;;-0.85;82.17;100094.05;124115;1113;23023;-54
2021/03/22 01:54:37;;;;;;;28.63;7.90;;;;;;;-0.84;81.74;100087.38;124189;1113;23169;-55
2021/03/22 01:57:32;;;;;;;28.17;7.77;;;;;;;-0.83;81.60;100086.20;124087;1113;23138;-56
2021/03/22 02:00:14;;;;;;;24.90;7.27;;;;;;;-0.84;82.20;100087.38;124198;1115;24772;-57
2021/03/22 02:02:45;;;;;;;27.90;7.87;;;;;;;-0.85;81.66;100092.06;124129;1113;23242;-54
2021/03/22 02:05:17;;;;;;;33.70;9.45;;;;;;;-0.83;81.72;100084.22;124108;1115;27538;-53
2021/03/22 02:07:51;;;;;;;34.37;9.23;;;;;;;-0.82;82.22;100088.53;124097;1115;23042;-55
2021/03/22 02:10:21;;;;;;;33.17;10.20;;;;;;;-0.82;82.37;100083.05;124166;1115;24835;-55
2021/03/22 02:12:51;;;;;;;31.23;10.43;;;;;;;-0.83;82.54;100086.20;124149;1114;23157;-56
2021/03/22 02:15:21;;;;;;;39.70;12.18;;;;;;;-0.84;82.36;100081.89;124058;1113;23082;-56
2021/03/22 02:18:08;;;;;;;40.13;12.47;;;;;;;-0.85;82.02;100086.59;124348;1114;23043;-53
2021/03/22 02:21:26;;;;;;;44.53;12.57;;;;;;;-0.88;82.25;100081.94;124177;1114;23189;-56
2021/03/22 02:24:25;;;;;;;49.23;13.57;;;;;;;-0.88;81.77;100081.14;124082;1116;23164;-54
2021/03/22 02:27:28;;;;;;;50.23;14.80;;;;;;;-0.89;82.55;100085.84;124090;1114;23317;-54
2021/03/22 02:30:27;;;;;;;52.70;14.93;;;;;;;-0.88;82.45;100078.41;124180;1114;23247;-56
2021/03/22 02:33:16;;;;;;;44.03;13.57;;;;;;;-0.88;82.80;100086.62;123948;1115;23946;-55
2021/03/22 02:35:53;;;;;;;45.43;12.57;;;;;;;-0.87;82.83;100085.45;124039;1116;23445;-53
2021/03/22 02:38:28;;;;;;;40.63;12.37;;;;;;;-0.88;82.77;100078.41;124039;1116;24673;-54
2021/03/22 02:41:02;;;;;;;35.40;10.77;;;;;;;-0.87;82.87;100088.20;124171;1116;23119;-56
2021/03/22 02:43:35;;;;;;;34.60;10.73;;;;;;;-0.84;82.54;100084.63;124085;1116;23037;-56
2021/03/22 02:46:05;;;;;;;31.27;9.47;;;;;;;-0.80;82.30;100082.63;124110;1115;23231;-53
2021/03/22 02:48:38;;;;;;;30.33;9.00;;;;;;;-0.78;82.86;100090.44;124154;1116;23043;-54
2021/03/22 02:51:19;;;;;;;26.93;8.33;;;;;;;-0.78;82.30;100087.70;123996;1116;23053;-56
2021/03/22 02:53:56;;;;;;;25.40;6.97;;;;;;;-0.77;82.26;100083.79;123931;1116;23420;-55
2021/03/22 02:56:38;;;;;;;27.07;7.70;;;;;;;-0.77;82.62;100087.31;124261;1115;23085;-56
2021/03/22 02:59:15;;;;;;;32.17;8.37;;;;;;;-0.75;82.73;100084.16;124040;1116;23125;-57
2021/03/22 03:01:48;;;;;;;27.95;7.85;;;;;;;-0.75;82.71;100093.17;124100;1115;23375;-54
2021/03/22 03:04:19;;;;;;;29.77;8.73;;;;;;;-0.75;82.02;100093.17;124055;1116;26943;-54
2021/03/22 03:06:52;;;;;;;31.10;10.37;;;;;;;-0.75;82.46;100101.39;123955;1116;26198;-54
2021/03/22 03:09:25;;;;;;;34.80;11.30;;;;;;;-0.75;81.87;100095.13;124098;1116;23352;-54
2021/03/22 03:11:55;;;;;;;35.47;11.07;;;;;;;-0.74;81.74;100104.89;124203;1113;23093;-55
2021/03/22 03:14:24;;;;;;;30.95;10.23;;;;;;;-0.75;82.59;100106.88;124105;1115;26195;-56
2021/03/22 03:16:53;;;;;;;33.20;11.40;;;;;;;-0.75;82.75;100106.09;124054;1116;24778;-54
2021/03/22 03:19:22;;;;;;;32.77;10.43;;;;;;;-0.74;82.56;100108.41;124097;1115;23241;-54
2021/03/22 03:21:51;;;;;;;32.60;9.30;;;;;;;-0.74;82.16;100102.15;123957;1114;23047;-55
2021/03/22 03:24:20;;;;;;;26.30;7.80;;;;;;;-0.76;82.73;100110.00;123980;1113;23086;-56
2021/03/22 03:26:49;;;;;;;25.60;7.37;;;;;;;-0.78;81.93;100109.62;124108;1114;23241;-54
2021/03/22 03:29:18;;;;;;;29.43;6.87;;;;;;;-0.79;82.42;100108.88;124063;1115;23220;-55
2021/03/22 03:31:47;;;;;;;24.30;6.43;;;;;;;-0.78;82.08;100107.67;124182;1115;23238;-55
2021/03/22 03:34:16;;;;;;;26.00;6.57;;;;;;;-0.78;82.16;100109.62;124128;1114;24673;-55
2021/03/22 03:36:45;;;;;;;22.33;5.83;;;;;;;-0.77;82.86;100114.73;124114;1115;23035;-54
2021/03/22 03:39:15;;;;;;;21.00;5.33;;;;;;;-0.78;83.01;100110.41;124076;1116;23206;-54
2021/03/22 03:41:44;;;;;;;22.52;5.65;;;;;;;-0.79;82.31;100106.13;124004;1114;24834;-54
2021/03/22 03:44:15;;;;;;;21.25;5.60;;;;;;;-0.79;83.15;100116.31;124208;1113;27855;-54
2021/03/22 03:46:45;;;;;;;26.50;5.90;;;;;;;-0.79;82.39;100113.56;124336;1113;23242;-56
2021/03/22 03:49:14;;;;;;;25.85;5.83;;;;;;;-0.79;82.28;100119.83;124216;1114;23092;-54
2021/03/22 03:51:44;;;;;;;26.60;5.35;;;;;;;-0.78;83.27;100123.33;124513;1116;23126;-54
2021/03/22 03:54:13;;;;;;;19.57;5.40;;;;;;;-0.79;82.39;100124.53;124259;1115;23029;-54
2021/03/22 03:56:42;;;;;;;21.10;5.23;;;;;;;-0.78;82.50;100123.33;124064;1115;27374;-55
2021/03/22 03:59:11;;;;;;;24.57;6.37;;;;;;;-0.76;82.71;100129.19;124089;1114;23099;-53
2021/03/22 04:01:41;;;;;;;25.17;6.40;;;;;;;-0.74;82.72;100124.08;123897;1115;26176;-55
2021/03/22 04:04:11;;;;;;;24.30;7.20;;;;;;;-0.74;82.70;100119.38;124144;1115;23093;-53
2021/03/22 04:06:40;;;;;;;24.18;7.70;;;;;;;-0.73;82.54;100129.17;124166;1113;24684;-54
2021/03/22 04:09:12;;;;;;;22.80;6.73;;;;;;;-0.72;83.12;100127.22;124057;1115;24685;-54
2021/03/22 04:11:42;;;;;;;23.47;6.60;;;;;;;-0.72;82.38;100127.22;124183;1114;23042;-55
2021/03/22 04:14:17;;;;;;;29.65;7.10;;;;;;;-0.72;83.14;100138.19;124106;1116;23096;-56
2021/03/22 04:16:46;;;;;;;25.77;7.30;;;;;;;-0.71;83.26;100143.25;124110;1114;26435;-55
2021/03/22 04:19:15;;;;;;;23.60;6.70;;;;;;;-0.68;83.14;100149.89;124153;1113;27541;-53
2021/03/22 04:21:45;;;;;;;20.67;5.47;;;;;;;-0.67;82.92;100137.73;124107;1115;23089;-56
2021/03/22 04:24:16;;;;;;;21.23;6.05;;;;;;;-0.68;82.81;100136.94;124267;1113;23019;-55
2021/03/22 04:26:44;;;;;;;;;;;;;;;-0.69;82.74;100135.41;124172;1114;28611;-54
2021/03/22 04:29:15;;;;;;;22.50;5.57;;;;;;;-0.69;82.94;100140.09;124262;1116;21535;-53
2021/03/22 04:31:44;;;;;;;21.87;5.43;;;;;;;-0.70;83.17;100138.55;124055;1114;23028;-53
2021/03/22 04:34:14;;;;;;;25.33;6.80;;;;;;;-0.70;83.58;100144.80;124075;1115;23296;-56
2021/03/22 04:36:44;;;;;;;24.17;6.37;;;;;;;-0.69;83.43;100151.06;124235;1114;26632;-54
2021/03/22 04:39:13;;;;;;;24.40;6.63;;;;;;;-0.67;83.12;100159.66;124051;1115;26739;-55
2021/03/22 04:41:42;;;;;;;25.07;5.17;;;;;;;-0.67;82.64;100154.97;124059;1114;23043;-57
2021/03/22 04:44:12;;;;;;;21.60;5.70;;;;;;;-0.65;82.95;100149.85;124033;1115;27711;-56
2021/03/22 04:46:41;;;;;;;23.32;5.17;;;;;;;-0.63;83.42;100150.23;124028;1115;23102;-54
2021/03/22 04:49:11;;;;;;;23.70;5.40;;;;;;;-0.61;82.49;100155.30;124041;1115;23032;-55
2021/03/22 04:51:40;;;;;;;21.50;5.17;;;;;;;-0.61;83.44;100160.78;124137;1114;23099;-54
2021/03/22 04:54:10;;;;;;;22.97;5.37;;;;;;;-0.61;83.35;100155.30;124048;1114;23050;-55
2021/03/22 04:56:39;;;;;;;;;;;;;;;-0.61;82.96;100145.11;124139;1115;23242;-56
2021/03/22 04:59:09;;;;;;;29.60;7.25;;;;;;;-0.61;82.51;100147.86;124157;1113;21988;-55
2021/03/22 05:01:39;;;;;;;24.32;6.12;;;;;;;-0.61;83.24;100147.86;124122;1115;27550;-54
2021/03/22 05:04:09;;;;;;;24.20;5.45;;;;;;;-0.61;82.86;100156.08;124127;1113;23080;-54
2021/03/22 05:06:37;;;;;;;22.30;5.37;;;;;;;-0.60;82.79;100152.14;124166;1113;26460;-56
2021/03/22 05:09:07;;;;;;;22.20;5.37;;;;;;;-0.57;83.18;100150.56;124205;1115;23323;-56
2021/03/22 05:11:37;;;;;;;19.35;5.30;;;;;;;-0.54;83.11;100156.03;124134;1114;23142;-56
2021/03/22 05:14:05;;;;;;;20.07;4.97;;;;;;;-0.53;83.45;100154.83;124036;1115;23055;-56
2021/03/22 05:16:35;;;;;;;23.07;5.00;;;;;;;-0.48;82.72;100156.36;123992;1114;23047;-54
2021/03/22 05:19:04;;;;;;;15.63;4.27;;;;;;;-0.46;82.51;100162.21;123962;1114;23099;-56
2021/03/22 05:21:33;;;;;;;19.57;4.87;;;;;;;-0.44;82.62;100173.55;124115;1115;26100;-54
2021/03/22 05:24:03;;;;;;;23.93;5.10;;;;;;;-0.43;83.25;100169.61;124167;1113;23090;-53
2021/03/22 05:26:32;;;;;;;20.60;4.55;;;;;;;-0.42;82.57;100171.97;124242;1115;23086;-54
2021/03/22 05:29:03;;;;;;;20.27;4.85;;;;;;;-0.40;82.51;100175.08;124199;1114;26006;-54
2021/03/22 05:31:34;;;;;;;18.87;5.97;;;;;;;-0.39;83.39;100173.88;124185;1114;23096;-54
2021/03/22 05:34:04;;;;;;;20.67;4.40;;;;;;;-0.37;82.60;100170.72;124216;1112;26839;-55
2021/03/22 05:36:33;;;;;;;23.67;5.78;;;;;;;-0.36;82.85;100175.83;124161;1116;23266;-55
2021/03/22 05:39:03;;;;;;;22.60;5.87;;;;;;;-0.35;82.53;100187.58;124055;1115;27377;-54
2021/03/22 05:41:46;;;;;;;30.62;6.78;;;;;;;-0.35;82.48;100180.11;124045;1113;26253;-54
2021/03/22 05:44:32;;;;;;;29.45;6.65;;;;;;;-0.33;82.56;100183.23;124201;1112;26477;-54
2021/03/22 05:47:17;;;;;;;24.63;7.03;;;;;;;-0.32;82.65;100171.08;124165;1114;23024;-59
2021/03/22 05:49:57;;;;;;;28.43;6.37;;;;;;;-0.30;83.39;100178.89;124281;1114;23271;-55
2021/03/22 05:52:57;;;;;;;26.13;7.77;;;;;;;-0.28;82.93;100191.03;124047;1116;24661;-54
2021/03/22 05:55:41;;;;;;;26.60;7.20;;;;;;;-0.27;82.94;100189.83;124061;1115;26469;-54
2021/03/22 05:58:32;;;;;;;23.27;6.30;;;;;;;-0.24;83.38;100193.72;124420;1115;26308;-54
2021/03/22 06:01:10;;;;;;;22.63;5.73;;;;;;;-0.21;82.82;100196.42;124034;1116;23004;-54
2021/03/22 06:03:45;;;;;;;27.87;7.03;;;;;;;-0.19;83.18;100196.04;123977;1114;23116;-62
2021/03/22 06:06:22;;;;;;;23.00;7.20;;;;;;;-0.17;82.60;100191.70;124115;1115;23096;-54
2021/03/22 06:08:55;;;;;;;29.00;6.93;;;;;;;-0.14;82.88;100193.62;124086;1114;23135;-56
2021/03/22 06:11:44;;;;;;;28.27;7.53;;;;;;;-0.12;82.10;100191.24;124103;1114;23094;-54
2021/03/22 06:14:22;;;;;;;28.70;7.67;;;;;;;-0.08;82.96;100197.47;124136;1114;23091;-55
2021/03/22 06:17:00;;;;;;;31.93;7.33;;;;;;;-0.05;83.18;100196.67;124267;1115;23093;-57
2021/03/22 06:19:33;;;;;;;18.27;5.60;;;;;;;-0.02;83.01;100198.58;124104;1114;23043;-57
2021/03/22 06:22:04;;;;;;;27.47;6.67;;;;;;;0.03;82.49;100202.06;124034;1115;27819;-57
2021/03/22 06:24:36;;;;;;;25.30;7.03;;;;;;;0.06;82.97;100202.05;124084;1115;23039;-54
2021/03/22 06:27:10;;;;;;;23.00;6.63;;;;;;;0.09;82.74;100208.66;124266;1114;23097;-58
2021/03/22 06:29:43;;;;;;;25.33;5.73;;;;;;;0.10;81.90;100205.53;124323;1115;23046;-59
2021/03/22 06:32:18;;;;;;;25.90;6.87;;;;;;;0.10;82.69;100208.27;124152;1115;27219;-55
2021/03/22 06:34:54;;;;;;;24.17;6.37;;;;;;;0.16;82.23;100216.83;124124;1115;23045;-56
2021/03/22 06:37:26;;;;;;;21.90;6.33;;;;;;;0.16;82.05;100219.58;123901;1114;23096;-55
2021/03/22 06:40:08;;;;;;;23.53;5.23;;;;;;;0.19;81.92;100221.52;124226;1115;23167;-53
2021/03/22 06:42:38;;;;;;;24.70;6.47;;;;;;;0.22;81.92;100220.68;123942;1115;23019;-57
2021/03/22 06:45:29;;;;;;;22.60;5.40;;;;;;;0.22;81.82;100226.95;123817;1115;23049;-56
2021/03/22 06:48:26;;;;;;;22.50;5.27;;;;;;;0.24;81.85;100230.07;123880;1115;23083;-57
2021/03/22 06:51:16;;;;;;;23.23;6.00;;;;;;;0.28;81.87;100230.81;126050;1114;23098;-56
2021/03/22 06:53:50;;;;;;;21.73;5.95;;;;;;;0.32;82.67;100241.74;124030;1114;23011;-56
2021/03/22 06:56:26;;;;;;;21.97;5.83;;;;;;;0.36;82.37;100239.73;124048;1114;26130;-56
2021/03/22 06:59:12;;;;;;;17.23;5.30;;;;;;;0.39;81.98;100250.70;123912;1114;23047;-56
2021/03/22 07:01:44;;;;;;;21.77;5.87;;;;;;;0.44;81.72;100246.70;124302;1114;25354;-56
2021/03/22 07:04:21;;;;;;;21.30;6.05;;;;;;;0.47;81.84;100252.17;123671;1114;23409;-55
2021/03/22 07:07:15;;;;;;;16.93;4.73;;;;;;;0.53;81.55;100263.47;124527;1114;23023;-56
2021/03/22 07:09:54;;;;;;;15.77;4.47;;;;;;;0.57;81.81;100264.99;126016;1113;23096;-57
2021/03/22 07:12:35;;;;;;;18.40;4.90;;;;;;;0.61;81.37;100267.69;123803;1115;23034;-57
2021/03/22 07:15:32;;;;;;;20.37;5.27;;;;;;;0.65;81.53;100263.71;123731;1113;27224;-55
2021/03/22 07:18:07;;;;;;;19.73;5.10;;;;;;;0.70;81.90;100279.72;123894;1115;24647;-54
2021/03/22 07:20:37;;;;;;;19.13;4.03;;;;;;;0.76;82.20;100278.11;124141;1113;26035;-56
2021/03/22 07:23:34;;;;;;;14.60;3.83;;;;;;;0.81;81.08;100268.60;124153;1114;23083;-55
2021/03/22 07:26:10;;;;;;;16.75;4.00;;;;;;;0.82;81.22;100272.92;124033;1116;27781;-55
2021/03/22 07:28:50;;;;;;;16.80;4.27;;;;;;;0.85;81.52;100280.33;124155;1115;23089;-56
2021/03/22 07:31:33;;;;;;;13.93;2.98;;;;;;;0.88;80.99;100290.51;123693;1115;23082;-56
2021/03/22 07:34:18;;;;;;;18.10;3.90;;;;;;;0.92;80.97;100287.70;124631;1115;29147;-54
2021/03/22 07:36:54;;;;;;;17.57;4.30;;;;;;;0.97;80.95;100281.77;124505;1114;23240;-54
2021/03/22 07:39:38;;;;;;;21.73;4.57;;;;;;;1.04;80.94;100281.65;123999;1116;23099;-56
2021/03/22 07:42:36;;;;;;;18.20;4.00;;;;;;;1.07;80.89;100289.08;124005;1114;23069;-54
2021/03/22 07:45:21;;;;;;;16.60;3.80;;;;;;;1.13;80.90;100287.42;124006;1113;26033;-56
2021/03/22 07:48:29;;;;;;;18.47;4.10;;;;;;;1.17;80.85;100288.16;123918;1113;23469;-55
2021/03/22 07:51:11;;;;;;;17.73;3.40;;;;;;;1.21;80.14;100292.41;124101;1113;28487;-56
2021/03/22 07:53:45;;;;;;;18.60;3.10;;;;;;;1.21;80.15;100284.17;123836;1114;23026;-55
2021/03/22 07:56:23;;;;;;;16.50;3.50;;;;;;;1.24;80.28;100286.07;123906;1114;26510;-55
2021/03/22 07:59:16;;;;;;;14.13;2.57;;;;;;;1.26;80.29;100291.17;123940;1113;23573;-54
2021/03/22 08:02:08;;;;;;;15.65;3.12;;;;;;;1.25;79.94;100289.61;123901;1114;27421;-54
2021/03/22 08:04:44;;;;;;;14.90;2.57;;;;;;;1.27;79.54;100287.22;123844;1113;23068;-56
2021/03/22 08:07:38;;;;;;;19.83;3.63;;;;;;;1.29;80.29;100298.58;124195;1114;23046;-53
2021/03/22 08:10:24;;;;;;;16.07;3.30;;;;;;;1.30;79.29;100300.16;123793;1115;26041;-55
2021/03/22 08:13:02;;;;;;;12.23;1.80;;;;;;;1.29;79.14;100304.08;123952;1114;23242;-53
2021/03/22 08:15:42;;;;;;;14.37;2.33;;;;;;;1.26;79.85;100299.42;123934;1115;23075;-55
2021/03/22 08:18:26;;;;;;;13.87;2.47;;;;;;;1.24;80.06;100310.82;123775;1114;23558;-57
2021/03/22 08:21:06;;;;;;;17.70;2.70;;;;;;;1.22;79.83;100304.95;124208;1114;23213;-55
2021/03/22 08:23:45;;;;;;;18.00;3.13;;;;;;;1.21;78.75;100308.13;124603;1114;26553;-56
2021/03/22 08:26:22;;;;;;;11.70;2.83;;;;;;;1.23;79.96;100313.99;123781;1115;24107;-55
2021/03/22 08:29:02;;;;;;;16.60;3.37;;;;;;;1.26;80.28;100313.18;124156;1114;23083;-57
2021/03/22 08:31:38;;;;;;;;;;;;;;;1.32;79.59;100309.55;124052;1113;23086;-57
2021/03/22 08:34:13;;;;;;;13.10;2.70;;;;;;;1.34;80.14;100306.38;123750;1114;21965;-55
2021/03/22 08:36:52;;;;;;;14.07;2.30;;;;;;;1.35;79.23;100307.92;123952;1113;23027;-53
2021/03/22 08:39:34;;;;;;;12.53;2.53;;;;;;;1.35;79.23;100318.92;124797;1114;23242;-56
2021/03/22 08:42:13;;;;;;;15.23;3.17;;;;;;;1.43;80.32;100321.16;124062;1113;23106;-54
2021/03/22 08:44:52;;;;;;;12.80;2.60;;;;;;;1.55;79.51;100311.58;124042;1113;23238;-56
2021/03/22 08:47:36;;;;;;;18.57;3.27;;;;;;;1.63;79.11;100318.52;123854;1113;26872;-54
2021/03/22 08:50:09;;;;;;;15.50;2.90;;;;;;;1.70;80.02;100310.14;123908;1111;99437;-55
2021/03/22 08:52:48;;;;;;;15.87;2.87;;;;;;;1.76;79.44;100315.97;124515;1111;23238;-57
2021/03/22 08:55:20;;;;;;;16.40;3.05;;;;;;;1.77;79.52;100315.54;124137;1111;23036;-54
2021/03/22 08:57:59;;;;;;;14.73;3.20;;;;;;;1.84;79.53;100320.16;124224;1112;23090;-56
2021/03/22 09:00:34;;;;;;;14.70;2.67;;;;;;;1.92;79.63;100324.34;124065;1111;23002;-57
2021/03/22 09:03:18;;;;;;;15.97;3.30;;;;;;;2.01;79.55;100336.38;124075;1111;27377;-55
2021/03/22 09:06:09;;;;;;;16.97;3.13;;;;;;;2.05;78.79;100337.09;124058;1112;23078;-57
2021/03/22 09:08:41;;;;;;;15.87;3.27;;;;;;;2.07;78.69;100337.45;124288;1111;23236;-54
2021/03/22 09:11:27;;;;;;;13.97;2.70;;;;;;;2.12;78.40;100349.97;124657;1112;26417;-56
2021/03/22 09:13:59;;;;;;;20.40;3.57;;;;;;;2.13;78.41;100349.54;124006;1114;26493;-54
2021/03/22 09:16:41;;;;;;;14.70;3.27;;;;;;;2.25;78.98;100345.42;124197;1111;23242;-54
2021/03/22 09:19:38;;;;;;;14.67;2.70;;;;;;;2.34;78.61;100349.17;124324;1112;23035;-55
2021/03/22 09:22:55;;;;;;;15.23;3.27;;;;;;;2.39;78.45;100354.22;124099;1112;27415;-57
2021/03/22 09:26:01;;;;;;;17.33;3.50;;;;;;;2.40;78.42;100355.75;123978;1112;23059;-56
2021/03/22 09:28:46;;;;;;;17.80;3.30;;;;;;;2.40;78.06;100355.75;123947;1111;26417;-56
2021/03/22 09:31:46;;;;;;;18.00;4.20;;;;;;;2.42;78.24;100358.11;124672;1112;23236;-57
2021/03/22 09:34:50;;;;;;;13.60;2.70;;;;;;;2.47;78.84;100363.13;124243;1112;23199;-57
2021/03/22 09:37:42;;;;;;;17.23;3.27;;;;;;;2.51;78.83;100369.34;124012;1112;24626;-57
2021/03/22 09:40:32;;;;;;;14.37;4.13;;;;;;;2.51;78.79;100366.59;124616;1112;23035;-57
2021/03/22 09:43:21;;;;;;;15.63;3.87;;;;;;;2.59;78.57;100358.98;124063;1112;23092;-55
2021/03/22 09:46:17;;;;;;;19.73;5.07;;;;;;;2.66;78.58;100356.87;124223;1112;23429;-56
2021/03/22 09:49:16;;;;;;;14.00;3.90;;;;;;;2.76;78.33;100363.37;124084;1112;23075;-57
2021/03/22 09:52:02;;;;;;;15.77;3.80;;;;;;;2.79;77.34;100366.08;124174;1112;23192;-55
2021/03/22 09:54:37;;;;;;;20.60;5.40;;;;;;;2.75;77.25;100350.80;124255;1112;24685;-54
2021/03/22 09:57:40;;;;;;;20.60;5.67;;;;;;;2.79;78.39;100349.53;124101;1112;23224;-56
2021/03/22 10:00:27;;;;;;;14.20;3.30;;;;;;;2.86;77.84;100357.65;124668;1112;26073;-56
2021/03/22 10:02:58;;;;;;;18.57;3.70;;;;;;;2.89;77.14;100365.09;124119;1112;24687;-57
2021/03/22 10:05:30;;;;;;;19.20;4.93;;;;;;;2.93;77.74;100359.49;124389;1112;23099;-54
2021/03/22 10:08:17;;;;;;;14.50;3.10;;;;;;;3.02;77.18;100352.20;124399;1112;23034;-56
2021/03/22 10:10:53;;;;;;;13.87;3.00;;;;;;;3.12;78.04;100362.23;124139;1112;27203;-57
2021/03/22 10:13:27;;;;;;;17.47;4.07;;;;;;;3.21;77.66;100362.44;124462;1112;28447;-56
2021/03/22 10:15:59;;;;;;;16.75;4.00;;;;;;;3.33;77.59;100363.01;124451;1111;23015;-54
2021/03/22 10:18:34;;;;;;;14.45;3.70;;;;;;;3.35;77.12;100361.38;124215;1112;23479;-56
2021/03/22 10:21:09;;;;;;;16.13;3.93;;;;;;;3.41;77.27;100359.67;124060;1112;24798;-57
2021/03/22 10:23:47;;;;;;;15.97;3.50;;;;;;;3.40;76.83;100363.63;124251;1111;23239;-56
2021/03/22 10:26:33;;;;;;;18.63;3.20;;;;;;;3.39;77.00;100355.78;124494;1111;23087;-57
2021/03/22 10:29:31;;;;;;;17.60;3.13;;;;;;;3.36;76.56;100360.16;124438;1112;23037;-57
2021/03/22 10:32:07;;;;;;;11.10;1.87;;;;;;;3.40;76.48;100360.86;125848;1111;23453;-56
2021/03/22 10:34:46;;;;;;;9.70;2.30;;;;;;;3.46;76.92;100370.19;124756;1112;23300;-56
2021/03/22 10:37:21;;;;;;;14.67;2.50;;;;;;;3.53;76.52;100360.98;124376;1111;23367;-56
2021/03/22 10:39:52;;;;;;;11.70;2.30;;;;;;;3.57;75.73;100362.46;125539;1111;24704;-54
2021/03/22 10:42:37;;;;;;;10.93;1.80;;;;;;;3.65;76.01;100368.59;124614;1112;23039;-56
2021/03/22 10:45:34;;;;;;;11.50;1.93;;;;;;;3.76;76.09;100372.68;124262;1112;23576;-56
2021/03/22 10:48:23;;;;;;;12.87;1.83;;;;;;;3.85;74.83;100375.60;124242;1112;24653;-55
2021/03/22 10:51:12;;;;;;;6.27;1.40;;;;;;;3.87;74.48;100386.24;124414;1112;30765;-56
2021/03/22 10:54:00;;;;;;;7.73;1.67;;;;;;;3.88;74.60;100374.75;125130;1112;28713;-58
2021/03/22 10:56:35;;;;;;;14.87;1.70;;;;;;;3.98;75.42;100376.48;124670;1112;23053;-54
2021/03/22 10:59:13;;;;;;;11.50;2.43;;;;;;;4.08;75.20;100378.21;124762;1110;23072;-56
2021/03/22 11:01:44;;;;;;;11.00;2.30;;;;;;;4.15;75.51;100382.79;125344;1110;23165;-54
2021/03/22 11:04:20;;;;;;;12.87;2.03;;;;;;;4.20;74.97;100382.25;124304;1111;23385;-55
2021/03/22 11:06:53;;;;;;;14.87;2.43;;;;;;;4.25;74.40;100383.73;125144;1112;23000;-58
2021/03/22 11:09:32;;;;;;;17.73;2.30;;;;;;;4.32;74.78;100380.80;125215;1112;23445;-59
2021/03/22 11:12:05;;;;;;;9.43;2.17;;;;;;;4.40;74.03;100380.19;124839;1111;23356;-58
2021/03/22 11:14:40;;;;;;;14.73;2.67;;;;;;;4.49;74.38;100385.11;125873;1112;27947;-59
2021/03/22 11:17:17;;;;;;;10.70;2.75;;;;;;;4.57;74.69;100376.17;125154;1112;26027;-58
2021/03/22 11:19:50;;;;;;;12.70;2.95;;;;;;;4.65;74.63;100374.80;124734;1112;23242;-56
2021/03/22 11:22:38;;;;;;;12.60;3.67;;;;;;;4.70;73.89;100376.23;124465;1111;23093;-56
2021/03/22 11:25:38;;;;;;;11.50;2.67;;;;;;;4.70;73.77;100379.00;124981;1110;23245;-58
2021/03/22 11:28:24;;;;;;;13.60;2.87;;;;;;;4.72;73.45;100384.87;124304;1112;24963;-55
2021/03/22 11:31:02;;;;;;;11.33;2.43;;;;;;;4.77;73.61;100382.37;124468;1112;23110;-60
2021/03/22 11:33:43;;;;;;;17.60;4.27;;;;;;;4.80;74.10;100383.49;124095;1112;23023;-58
2021/03/22 11:36:16;;;;;;;12.40;4.03;;;;;;;4.85;73.75;100389.26;124291;1112;23461;-63
2021/03/22 11:38:53;;;;;;;12.47;2.90;;;;;;;4.92;73.16;100382.76;124215;1112;23251;-62
2021/03/22 11:41:29;;;;;;;12.80;3.40;;;;;;;4.92;72.85;100383.52;124196;1110;23036;-63
2021/03/22 11:44:06;;;;;;;12.60;3.73;;;;;;;4.96;73.44;100383.44;125241;1111;23030;-62
2021/03/22 11:46:36;;;;;;;14.45;3.55;;;;;;;5.01;72.70;100388.41;124420;1112;25988;-62
2021/03/22 11:49:27;;;;;;;15.38;3.33;;;;;;;5.07;72.99;100389.43;124004;1111;23005;-57
2021/03/22 11:51:57;;;;;;;12.93;3.20;;;;;;;5.14;72.94;100388.45;124082;1111;34804;-56
2021/03/22 11:54:27;;;;;;;13.85;2.80;;;;;;;5.21;72.51;100388.27;126164;1111;23083;-57
2021/03/22 11:57:02;;;;;;;12.50;3.00;;;;;;;5.27;70.96;100387.30;125269;1111;24531;-56
2021/03/22 11:59:32;;;;;;;15.00;3.67;;;;;;;5.33;71.63;100384.75;124579;1112;23046;-57